createdAt,value
2018-10-18T00:00:17.461Z,106.70
2018-10-18T00:01:17.357Z,107.50
2018-10-18T00:02:17.431Z,109.40
2018-10-18T00:03:17.417Z,111.00
2018-10-18T00:04:17.370Z,113.40
2018-10-18T00:05:17.341Z,112.30
2018-10-18T00:06:17.455Z,114.00
2018-10-18T00:07:17.364Z,110.90
2018-10-18T00:08:17.473Z,106.70
2018-10-18T00:09:17.358Z,104.20
2018-10-18T00:10:17.338Z,107.50
2018-10-18T00:11:17.360Z,100.80
2018-10-18T00:12:17.378Z,107.70
2018-10-18T00:13:17.361Z,107.00
2018-10-18T00:14:17.399Z,105.40
2018-10-18T00:15:17.348Z,107.20
2018-10-18T00:16:17.359Z,105.50
2018-10-18T00:17:17.364Z,107.20
2018-10-18T00:18:17.386Z,106.30
2018-10-18T00:19:17.348Z,109.30
2018-10-18T00:20:17.353Z,106.90
2018-10-18T00:21:17.334Z,115.40
2018-10-18T00:22:17.334Z,109.30
2018-10-18T00:23:17.345Z,105.60
2018-10-18T00:24:17.471Z,103.10
2018-10-18T00:25:17.353Z,104.80
2018-10-18T00:26:17.390Z,107.90
2018-10-18T00:27:17.350Z,106.10
2018-10-18T00:28:17.359Z,105.60
2018-10-18T00:29:17.348Z,99.40
2018-10-18T00:30:17.500Z,105.40
2018-10-18T00:31:17.363Z,103.20
2018-10-18T00:32:17.428Z,108.10
2018-10-18T00:33:17.543Z,104.60
2018-10-18T00:34:17.352Z,113.00
2018-10-18T00:35:17.331Z,107.80
2018-10-18T00:36:17.471Z,112.10
2018-10-18T00:37:17.354Z,104.70
2018-10-18T00:38:17.348Z,108.10
2018-10-18T00:39:17.326Z,106.80
2018-10-18T00:40:17.328Z,107.20
2018-10-18T00:41:17.331Z,110.00
2018-10-18T00:42:17.499Z,108.00
2018-10-18T00:43:17.332Z,106.60
2018-10-18T00:44:17.352Z,105.70
2018-10-18T00:45:17.325Z,107.20
2018-10-18T00:46:17.326Z,105.60
2018-10-18T00:47:17.328Z,104.70
2018-10-18T00:48:17.360Z,109.40
2018-10-18T00:49:17.332Z,112.10
2018-10-18T00:50:17.406Z,106.80
2018-10-18T00:51:17.322Z,104.30
2018-10-18T00:52:17.320Z,104.90
2018-10-18T00:53:17.533Z,112.00
2018-10-18T00:54:17.349Z,107.90
2018-10-18T00:55:17.317Z,113.10
2018-10-18T00:56:17.415Z,111.70
2018-10-18T00:57:17.327Z,106.30
2018-10-18T00:58:17.328Z,105.00
2018-10-18T00:59:17.517Z,107.80
2018-10-18T01:00:17.457Z,105.80
2018-10-18T01:01:17.529Z,104.20
2018-10-18T01:02:17.422Z,101.60
2018-10-18T01:03:17.317Z,106.80
2018-10-18T01:04:17.312Z,106.80
2018-10-18T01:05:17.321Z,109.10
2018-10-18T01:06:17.430Z,107.50
2018-10-18T01:07:17.324Z,105.40
2018-10-18T01:08:17.437Z,107.40
2018-10-18T01:09:17.317Z,107.80
2018-10-18T01:10:17.323Z,105.70
2018-10-18T01:11:17.511Z,107.30
2018-10-18T01:12:17.391Z,106.60
2018-10-18T01:13:17.308Z,104.50
2018-10-18T01:14:17.368Z,101.20
2018-10-18T01:15:17.509Z,104.90
2018-10-18T01:16:17.304Z,102.10
2018-10-18T01:17:17.303Z,104.90
2018-10-18T01:18:17.389Z,105.50
2018-10-18T01:19:17.302Z,105.90
2018-10-18T01:20:17.379Z,101.30
2018-10-18T01:21:17.304Z,110.90
2018-10-18T01:22:17.304Z,99.60
2018-10-18T01:23:17.311Z,103.20
2018-10-18T01:24:17.421Z,104.10
2018-10-18T01:25:17.316Z,101.10
2018-10-18T01:26:17.396Z,110.40
2018-10-18T01:27:17.298Z,101.80
2018-10-18T01:28:17.322Z,102.90
2018-10-18T01:29:17.509Z,101.50
2018-10-18T01:30:17.297Z,105.30
2018-10-18T01:31:17.296Z,105.00
2018-10-18T01:32:17.331Z,101.90
2018-10-18T01:33:17.294Z,105.00
2018-10-18T01:34:17.293Z,108.10
2018-10-18T01:35:17.305Z,104.40
2018-10-18T01:36:17.429Z,105.30
2018-10-18T01:37:17.306Z,103.40
2018-10-18T01:38:17.468Z,105.20
2018-10-18T01:39:17.291Z,104.30
2018-10-18T01:40:17.291Z,109.60
2018-10-18T01:41:17.294Z,100.90
2018-10-18T01:42:17.347Z,111.30
2018-10-18T01:43:17.291Z,102.00
2018-10-18T01:44:17.395Z,108.00
2018-10-18T01:45:17.296Z,105.50
2018-10-18T01:46:17.310Z,106.50
2018-10-18T01:47:17.296Z,105.30
2018-10-18T01:48:17.405Z,107.90
2018-10-18T01:49:17.293Z,101.50
2018-10-18T01:50:17.454Z,108.20
2018-10-18T01:51:17.286Z,105.20
2018-10-18T01:52:17.305Z,106.30
2018-10-18T01:53:17.282Z,107.70
2018-10-18T01:54:17.613Z,106.90
2018-10-18T01:55:17.283Z,101.70
2018-10-18T01:56:17.361Z,106.70
2018-10-18T01:57:17.284Z,102.40
2018-10-18T01:58:17.278Z,103.30
2018-10-18T01:59:17.278Z,107.20
2018-10-18T02:00:17.433Z,105.60
2018-10-18T02:01:17.278Z,105.90
2018-10-18T02:02:17.455Z,103.90
2018-10-18T02:03:17.276Z,102.40
2018-10-18T02:04:17.277Z,106.70
2018-10-18T02:05:17.274Z,103.00
2018-10-18T02:06:17.421Z,104.50
2018-10-18T02:07:17.286Z,100.40
2018-10-18T02:08:17.430Z,102.20
2018-10-18T02:09:17.270Z,98.50
2018-10-18T02:10:17.288Z,97.60
2018-10-18T02:11:17.270Z,102.20
2018-10-18T02:12:17.395Z,100.60
2018-10-18T02:13:17.300Z,105.40
2018-10-18T02:14:17.268Z,105.90
2018-10-18T02:15:17.270Z,104.60
2018-10-18T02:16:17.277Z,99.80
2018-10-18T02:17:17.276Z,98.20
2018-10-18T02:18:17.450Z,105.60
2018-10-18T02:19:17.366Z,101.10
2018-10-18T02:20:17.281Z,105.30
2018-10-18T02:21:17.263Z,99.10
2018-10-18T02:22:17.274Z,96.20
2018-10-18T02:23:17.262Z,100.00
2018-10-18T02:24:17.368Z,102.10
2018-10-18T02:25:17.407Z,103.50
2018-10-18T02:26:17.275Z,103.80
2018-10-18T02:27:17.270Z,106.60
2018-10-18T02:28:17.476Z,106.10
2018-10-18T02:29:17.257Z,101.90
2018-10-18T02:30:17.416Z,102.90
2018-10-18T02:31:17.282Z,103.70
2018-10-18T02:32:17.287Z,109.70
2018-10-18T02:33:17.255Z,104.40
2018-10-18T02:34:17.265Z,102.20
2018-10-18T02:35:17.263Z,104.70
2018-10-18T02:36:17.283Z,102.40
2018-10-18T02:37:17.252Z,101.60
2018-10-18T02:38:17.251Z,100.00
2018-10-18T02:39:17.261Z,102.70
2018-10-18T02:40:17.266Z,102.00
2018-10-18T02:41:17.251Z,100.10
2018-10-18T02:42:17.289Z,100.50
2018-10-18T02:43:17.262Z,93.30
2018-10-18T02:44:17.246Z,95.50
2018-10-18T02:45:17.253Z,94.60
2018-10-18T02:46:17.257Z,95.00
2018-10-18T02:47:17.245Z,87.50
2018-10-18T02:48:17.343Z,89.30
2018-10-18T02:49:17.245Z,92.50
2018-10-18T02:50:17.449Z,89.90
2018-10-18T02:51:17.241Z,88.20
2018-10-18T02:52:17.245Z,93.20
2018-10-18T02:53:17.267Z,93.30
2018-10-18T02:54:17.270Z,89.50
2018-10-18T02:55:17.238Z,86.70
2018-10-18T02:56:17.239Z,80.80
2018-10-18T02:57:17.236Z,82.20
2018-10-18T02:58:17.237Z,88.00
2018-10-18T02:59:17.248Z,85.10
2018-10-18T03:00:17.299Z,87.10
2018-10-18T03:01:17.438Z,81.90
2018-10-18T03:02:17.242Z,83.80
2018-10-18T03:03:17.243Z,81.70
2018-10-18T03:04:17.236Z,75.50
2018-10-18T03:05:17.241Z,78.90
2018-10-18T03:06:17.260Z,78.70
2018-10-18T03:07:17.241Z,77.80
2018-10-18T03:08:17.242Z,79.60
2018-10-18T03:09:17.228Z,80.00
2018-10-18T03:10:17.230Z,84.20
2018-10-18T03:11:17.227Z,79.00
2018-10-18T03:12:17.256Z,79.30
2018-10-18T03:13:17.225Z,78.80
2018-10-18T03:14:17.427Z,78.40
2018-10-18T03:15:17.222Z,74.60
2018-10-18T03:16:17.234Z,73.20
2018-10-18T03:17:17.237Z,74.20
2018-10-18T03:18:17.290Z,74.40
2018-10-18T03:19:17.438Z,74.20
2018-10-18T03:20:17.220Z,74.10
2018-10-18T03:21:17.222Z,71.30
2018-10-18T03:22:17.218Z,67.40
2018-10-18T03:23:17.217Z,74.40
2018-10-18T03:24:17.274Z,69.40
2018-10-18T03:25:17.218Z,69.70
2018-10-18T03:26:17.218Z,68.30
2018-10-18T03:27:17.425Z,70.00
2018-10-18T03:28:17.231Z,71.30
2018-10-18T03:29:17.213Z,65.70
2018-10-18T03:30:17.347Z,66.00
2018-10-18T03:31:17.230Z,66.60
2018-10-18T03:32:17.229Z,65.50
2018-10-18T03:33:17.213Z,64.40
2018-10-18T03:34:17.251Z,65.90
2018-10-18T03:35:17.227Z,60.80
2018-10-18T03:36:17.271Z,63.70
2018-10-18T03:37:17.221Z,57.90
2018-10-18T03:38:17.210Z,62.50
2018-10-18T03:39:17.210Z,62.10
2018-10-18T03:40:17.222Z,63.00
2018-10-18T03:41:17.268Z,60.30
2018-10-18T03:42:17.276Z,63.20
2018-10-18T03:43:17.223Z,60.80
2018-10-18T03:44:17.206Z,57.60
2018-10-18T03:45:17.230Z,57.20
2018-10-18T03:46:17.240Z,64.90
2018-10-18T03:47:17.216Z,60.50
2018-10-18T03:48:17.254Z,62.50
2018-10-18T03:49:17.218Z,62.40
2018-10-18T03:50:17.232Z,63.80
2018-10-18T03:51:17.421Z,59.50
2018-10-18T03:52:17.255Z,61.40
2018-10-18T03:53:17.205Z,64.00
2018-10-18T03:54:17.293Z,61.30
2018-10-18T03:55:17.201Z,64.90
2018-10-18T03:56:17.216Z,63.90
2018-10-18T03:57:17.200Z,63.50
2018-10-18T03:58:17.212Z,61.60
2018-10-18T03:59:17.202Z,59.20
2018-10-18T04:00:17.286Z,63.30
2018-10-18T04:01:17.202Z,66.40
2018-10-18T04:02:17.199Z,64.30
2018-10-18T04:03:17.211Z,65.80
2018-10-18T04:04:17.201Z,64.50
2018-10-18T04:05:17.198Z,67.80
2018-10-18T04:06:17.400Z,68.70
2018-10-18T04:07:17.213Z,66.50
2018-10-18T04:08:17.199Z,67.00
2018-10-18T04:09:17.198Z,67.60
2018-10-18T04:10:17.195Z,70.30
2018-10-18T04:11:17.206Z,70.90
2018-10-18T04:12:17.328Z,68.60
2018-10-18T04:13:17.299Z,71.70
2018-10-18T04:14:17.209Z,67.90
2018-10-18T04:15:17.194Z,76.30
2018-10-18T04:16:17.208Z,70.40
2018-10-18T04:17:17.210Z,74.50
2018-10-18T04:18:17.217Z,76.20
2018-10-18T04:19:17.192Z,72.40
2018-10-18T04:20:17.193Z,73.80
2018-10-18T04:21:17.193Z,76.20
2018-10-18T04:22:17.215Z,77.10
2018-10-18T04:23:17.207Z,71.00
2018-10-18T04:24:17.359Z,74.20
2018-10-18T04:25:17.224Z,71.70
2018-10-18T04:26:17.213Z,71.90
2018-10-18T04:27:17.213Z,72.90
2018-10-18T04:28:17.391Z,69.50
2018-10-18T04:29:17.189Z,70.90
2018-10-18T04:30:17.267Z,72.10
2018-10-18T04:31:17.212Z,76.00
2018-10-18T04:32:17.206Z,70.70
2018-10-18T04:33:17.197Z,71.20
2018-10-18T04:34:17.185Z,76.60
2018-10-18T04:35:17.218Z,78.20
2018-10-18T04:36:17.279Z,76.10
2018-10-18T04:37:17.239Z,75.00
2018-10-18T04:38:17.181Z,72.70
2018-10-18T04:39:17.185Z,75.50
2018-10-18T04:40:17.196Z,70.70
2018-10-18T04:41:17.210Z,73.20
2018-10-18T04:42:17.263Z,79.40
2018-10-18T04:43:17.182Z,78.10
2018-10-18T04:44:17.193Z,76.40
2018-10-18T04:45:17.194Z,79.40
2018-10-18T04:46:17.381Z,82.00
2018-10-18T04:47:17.205Z,77.90
2018-10-18T04:48:17.235Z,84.60
2018-10-18T04:49:17.192Z,83.10
2018-10-18T04:50:17.187Z,82.90
2018-10-18T04:51:17.176Z,83.00
2018-10-18T04:52:17.174Z,80.30
2018-10-18T04:53:17.188Z,85.00
2018-10-18T04:54:17.185Z,85.10
2018-10-18T04:55:17.317Z,78.10
2018-10-18T04:56:17.173Z,78.70
2018-10-18T04:57:17.173Z,82.60
2018-10-18T04:58:17.173Z,85.70
2018-10-18T04:59:17.176Z,80.30
2018-10-18T05:00:17.170Z,84.10
2018-10-18T05:01:17.348Z,77.70
2018-10-18T05:02:17.172Z,78.20
2018-10-18T05:03:17.176Z,83.90
2018-10-18T05:04:17.183Z,81.90
2018-10-18T05:05:17.169Z,83.20
2018-10-18T05:06:17.165Z,84.70
2018-10-18T05:07:17.310Z,86.90
2018-10-18T05:08:17.175Z,84.50
2018-10-18T05:09:17.165Z,79.30
2018-10-18T05:10:17.167Z,81.10
2018-10-18T05:11:17.178Z,88.40
2018-10-18T05:12:17.166Z,86.30
2018-10-18T05:13:17.261Z,85.00
2018-10-18T05:14:17.163Z,82.50
2018-10-18T05:15:17.162Z,82.80
2018-10-18T05:16:17.159Z,78.90
2018-10-18T05:17:17.160Z,81.20
2018-10-18T05:18:17.161Z,78.60
2018-10-18T05:19:17.286Z,82.30
2018-10-18T05:20:17.156Z,76.60
2018-10-18T05:21:17.162Z,80.90
2018-10-18T05:22:17.215Z,75.80
2018-10-18T05:23:17.169Z,75.80
2018-10-18T05:24:17.152Z,74.80
2018-10-18T05:25:17.256Z,76.70
2018-10-18T05:26:17.152Z,76.90
2018-10-18T05:27:17.154Z,75.60
2018-10-18T05:28:17.150Z,77.30
2018-10-18T05:29:17.161Z,73.00
2018-10-18T05:30:17.178Z,73.90
2018-10-18T05:31:17.192Z,77.20
2018-10-18T05:32:17.148Z,71.50
2018-10-18T05:33:17.157Z,74.50
2018-10-18T05:34:17.147Z,70.30
2018-10-18T05:35:17.150Z,70.60
2018-10-18T05:36:17.164Z,67.80
2018-10-18T05:37:17.250Z,69.00
2018-10-18T05:38:17.144Z,68.00
2018-10-18T05:39:17.149Z,66.70
2018-10-18T05:40:17.158Z,68.90
2018-10-18T05:41:17.204Z,64.00
2018-10-18T05:42:17.144Z,65.50
2018-10-18T05:43:17.325Z,69.80
2018-10-18T05:44:17.163Z,71.30
2018-10-18T05:45:17.143Z,74.60
2018-10-18T05:46:17.141Z,72.50
2018-10-18T05:47:17.201Z,82.20
2018-10-18T05:48:17.154Z,78.80
2018-10-18T05:49:17.216Z,79.80
2018-10-18T05:50:17.154Z,75.20
2018-10-18T05:51:17.342Z,74.80
2018-10-18T05:52:17.138Z,74.70
2018-10-18T05:53:17.258Z,73.00
2018-10-18T05:54:17.253Z,78.50
2018-10-18T05:55:17.238Z,80.30
2018-10-18T05:56:17.142Z,73.40
2018-10-18T05:57:17.355Z,78.30
2018-10-18T05:58:17.337Z,78.60
2018-10-18T05:59:17.135Z,76.10
2018-10-18T06:00:17.269Z,75.70
2018-10-18T06:01:17.274Z,77.20
2018-10-18T06:02:17.136Z,80.60
2018-10-18T06:03:17.133Z,74.90
2018-10-18T06:04:17.132Z,76.00
2018-10-18T06:05:17.142Z,74.80
2018-10-18T06:06:17.132Z,75.70
2018-10-18T06:07:17.232Z,76.90
2018-10-18T06:08:17.150Z,76.20
2018-10-18T06:09:17.132Z,74.90
2018-10-18T06:10:17.260Z,75.20
2018-10-18T06:11:17.334Z,80.90
2018-10-18T06:12:17.128Z,73.80
2018-10-18T06:13:17.316Z,75.20
2018-10-18T06:14:17.135Z,79.50
2018-10-18T06:15:17.126Z,77.70
2018-10-18T06:16:17.126Z,81.90
2018-10-18T06:17:17.139Z,92.30
2018-10-18T06:18:17.125Z,82.90
2018-10-18T06:19:17.291Z,77.40
2018-10-18T06:20:17.134Z,81.20
2018-10-18T06:21:17.132Z,79.50
2018-10-18T06:22:17.134Z,80.40
2018-10-18T06:23:17.215Z,78.70
2018-10-18T06:24:17.134Z,79.40
2018-10-18T06:25:17.249Z,82.50
2018-10-18T06:26:17.129Z,76.30
2018-10-18T06:27:17.121Z,79.20
2018-10-18T06:28:17.136Z,77.10
2018-10-18T06:29:17.138Z,81.60
2018-10-18T06:30:17.132Z,84.00
2018-10-18T06:31:17.118Z,75.80
2018-10-18T06:32:17.116Z,83.20
2018-10-18T06:33:17.126Z,80.10
2018-10-18T06:34:17.142Z,73.80
2018-10-18T06:35:17.128Z,81.00
2018-10-18T06:36:17.129Z,78.70
2018-10-18T06:37:17.195Z,80.20
2018-10-18T06:38:17.128Z,74.60
2018-10-18T06:39:17.241Z,79.60
2018-10-18T06:40:17.128Z,76.80
2018-10-18T06:41:17.239Z,76.40
2018-10-18T06:42:17.123Z,80.60
2018-10-18T06:43:17.263Z,78.70
2018-10-18T06:44:17.125Z,79.90
2018-10-18T06:45:17.109Z,78.50
2018-10-18T06:46:17.106Z,78.00
2018-10-18T06:47:17.181Z,82.40
2018-10-18T06:48:17.107Z,77.30
2018-10-18T06:49:17.197Z,71.30
2018-10-18T06:50:17.126Z,78.20
2018-10-18T06:51:17.108Z,76.40
2018-10-18T06:52:17.131Z,77.80
2018-10-18T06:53:17.119Z,72.70
2018-10-18T06:54:17.240Z,74.20
2018-10-18T06:55:17.216Z,75.50
2018-10-18T06:56:17.104Z,75.80
2018-10-18T06:57:17.102Z,75.80
2018-10-18T06:58:17.101Z,76.90
2018-10-18T06:59:17.102Z,71.40
2018-10-18T07:00:17.177Z,75.80
2018-10-18T07:01:17.305Z,73.90
2018-10-18T07:02:17.123Z,73.60
2018-10-18T07:03:17.110Z,72.60
2018-10-18T07:04:17.113Z,76.30
2018-10-18T07:05:17.103Z,71.30
2018-10-18T07:06:17.221Z,69.70
2018-10-18T07:07:17.098Z,72.40
2018-10-18T07:08:17.109Z,70.60
2018-10-18T07:09:17.301Z,73.70
2018-10-18T07:10:17.099Z,66.20
2018-10-18T07:11:17.105Z,71.10
2018-10-18T07:12:17.228Z,74.50
2018-10-18T07:13:17.095Z,69.90
2018-10-18T07:14:17.104Z,70.70
2018-10-18T07:15:17.099Z,72.50
2018-10-18T07:16:17.094Z,72.10
2018-10-18T07:17:17.092Z,74.80
2018-10-18T07:18:17.253Z,70.60
2018-10-18T07:19:17.092Z,72.00
2018-10-18T07:20:17.312Z,72.60
2018-10-18T07:21:17.090Z,75.10
2018-10-18T07:22:17.092Z,73.40
2018-10-18T07:23:17.091Z,74.70
2018-10-18T07:24:17.207Z,72.60
2018-10-18T07:25:17.132Z,75.30
2018-10-18T07:26:17.104Z,79.10
2018-10-18T07:27:17.089Z,72.70
2018-10-18T07:28:17.298Z,71.00
2018-10-18T07:29:17.306Z,76.20
2018-10-18T07:30:17.229Z,71.40
2018-10-18T07:31:17.100Z,75.90
2018-10-18T07:32:17.117Z,70.20
2018-10-18T07:33:17.112Z,70.50
2018-10-18T07:34:17.101Z,71.10
2018-10-18T07:35:17.102Z,69.10
2018-10-18T07:36:17.153Z,67.90
2018-10-18T07:37:17.107Z,71.10
2018-10-18T07:38:17.299Z,71.50
2018-10-18T07:39:17.083Z,71.40
2018-10-18T07:40:17.099Z,67.90
2018-10-18T07:41:17.135Z,70.90
2018-10-18T07:42:17.173Z,73.90
2018-10-18T07:43:17.089Z,70.30
2018-10-18T07:44:17.090Z,64.30
2018-10-18T07:45:17.098Z,66.30
2018-10-18T07:46:17.084Z,65.10
2018-10-18T07:47:17.115Z,67.60
2018-10-18T07:48:17.239Z,66.80
2018-10-18T07:49:17.093Z,66.70
2018-10-18T07:50:17.084Z,62.10
2018-10-18T07:51:17.082Z,64.60
2018-10-18T07:52:17.105Z,63.50
2018-10-18T07:53:17.158Z,59.40
2018-10-18T07:54:17.146Z,64.20
2018-10-18T07:55:17.089Z,59.20
2018-10-18T07:56:17.078Z,62.50
2018-10-18T07:57:17.090Z,57.90
2018-10-18T07:58:17.080Z,56.40
2018-10-18T07:59:17.081Z,56.80
2018-10-18T08:00:17.409Z,54.00
2018-10-18T08:01:17.075Z,60.30
2018-10-18T08:02:17.081Z,57.90
2018-10-18T08:03:17.293Z,58.50
2018-10-18T08:04:17.090Z,61.00
2018-10-18T08:05:17.085Z,58.20
2018-10-18T08:06:17.074Z,52.80
2018-10-18T08:07:17.234Z,53.90
2018-10-18T08:08:17.088Z,56.50
2018-10-18T08:09:17.074Z,54.70
2018-10-18T08:10:17.101Z,59.10
2018-10-18T08:11:17.087Z,59.00
2018-10-18T08:12:17.087Z,55.30
2018-10-18T08:13:17.122Z,53.40
2018-10-18T08:14:17.091Z,52.10
2018-10-18T08:15:17.085Z,52.20
2018-10-18T08:16:17.089Z,51.50
2018-10-18T08:17:17.522Z,53.80
2018-10-18T08:18:17.078Z,58.50
2018-10-18T08:19:17.435Z,53.20
2018-10-18T08:20:17.085Z,54.50
2018-10-18T08:21:17.069Z,53.50
2018-10-18T08:22:17.074Z,50.70
2018-10-18T08:23:17.100Z,51.40
2018-10-18T08:24:17.096Z,53.10
2018-10-18T08:25:17.224Z,53.00
2018-10-18T08:26:17.082Z,47.80
2018-10-18T08:27:17.071Z,50.40
2018-10-18T08:28:17.082Z,49.90
2018-10-18T08:29:17.069Z,50.50
2018-10-18T08:30:17.273Z,51.40
2018-10-18T08:31:17.249Z,48.80
2018-10-18T08:32:17.073Z,47.70
2018-10-18T08:33:17.069Z,52.30
2018-10-18T08:34:17.089Z,49.20
2018-10-18T08:35:17.078Z,50.90
2018-10-18T08:36:17.089Z,47.60
2018-10-18T08:37:17.196Z,47.60
2018-10-18T08:38:17.219Z,49.10
2018-10-18T08:39:17.289Z,46.20
2018-10-18T08:40:17.082Z,46.00
2018-10-18T08:41:17.065Z,41.90
2018-10-18T08:42:17.075Z,44.80
2018-10-18T08:43:17.134Z,42.20
2018-10-18T08:44:17.069Z,40.90
2018-10-18T08:45:17.063Z,43.20
2018-10-18T08:46:17.078Z,41.40
2018-10-18T08:47:17.075Z,40.70
2018-10-18T08:48:17.092Z,39.70
2018-10-18T08:49:17.154Z,41.60
2018-10-18T08:50:17.061Z,42.00
2018-10-18T08:51:17.063Z,37.90
2018-10-18T08:52:17.072Z,39.40
2018-10-18T08:53:17.065Z,38.50
2018-10-18T08:54:17.062Z,43.50
2018-10-18T08:55:17.141Z,39.20
2018-10-18T08:56:17.077Z,40.60
2018-10-18T08:57:17.059Z,38.20
2018-10-18T08:58:17.073Z,38.10
2018-10-18T08:59:17.159Z,41.70
2018-10-18T09:00:17.072Z,40.00
2018-10-18T09:01:17.220Z,40.40
2018-10-18T09:02:17.074Z,42.70
2018-10-18T09:03:17.058Z,43.70
2018-10-18T09:04:17.059Z,44.10
2018-10-18T09:05:17.059Z,47.30
2018-10-18T09:06:17.074Z,45.70
2018-10-18T09:07:17.160Z,47.30
2018-10-18T09:08:17.058Z,45.00
2018-10-18T09:09:17.161Z,44.50
2018-10-18T09:10:17.069Z,40.30
2018-10-18T09:11:17.070Z,43.20
2018-10-18T09:12:17.057Z,41.90
2018-10-18T09:13:17.155Z,40.00
2018-10-18T09:14:17.059Z,38.80
2018-10-18T09:15:17.085Z,38.20
2018-10-18T09:16:17.066Z,38.30
2018-10-18T09:17:17.064Z,38.40
2018-10-18T09:18:17.056Z,39.10
2018-10-18T09:19:17.104Z,37.90
2018-10-18T09:20:17.068Z,40.90
2018-10-18T09:21:17.075Z,40.00
2018-10-18T09:22:17.064Z,40.80
2018-10-18T09:23:17.052Z,36.40
2018-10-18T09:24:17.068Z,39.90
2018-10-18T09:25:17.223Z,41.00
2018-10-18T09:26:17.052Z,40.50
2018-10-18T09:27:17.060Z,40.80
2018-10-18T09:28:17.048Z,41.20
2018-10-18T09:29:17.053Z,38.50
2018-10-18T09:30:17.099Z,42.70
2018-10-18T09:31:17.388Z,47.00
2018-10-18T09:32:17.060Z,42.80
2018-10-18T09:33:17.053Z,42.30
2018-10-18T09:34:17.051Z,43.20
2018-10-18T09:35:17.062Z,48.70
2018-10-18T09:36:17.049Z,44.10
2018-10-18T09:37:17.121Z,44.30
2018-10-18T09:38:17.108Z,41.80
2018-10-18T09:39:17.060Z,44.00
2018-10-18T09:40:17.059Z,40.40
2018-10-18T09:41:17.055Z,37.00
2018-10-18T09:42:17.048Z,38.10
2018-10-18T09:43:17.092Z,35.90
2018-10-18T09:44:17.133Z,35.50
2018-10-18T09:45:17.051Z,34.70
2018-10-18T09:46:17.056Z,41.20
2018-10-18T09:47:17.056Z,34.90
2018-10-18T09:48:17.046Z,33.90
2018-10-18T09:49:17.172Z,35.70
2018-10-18T09:50:17.068Z,36.70
2018-10-18T09:51:17.248Z,34.70
2018-10-18T09:52:17.057Z,33.40
2018-10-18T09:53:17.046Z,38.10
2018-10-18T09:54:17.045Z,35.90
2018-10-18T09:55:17.191Z,35.70
2018-10-18T09:56:17.119Z,33.80
2018-10-18T09:57:17.044Z,33.90
2018-10-18T09:58:17.057Z,32.70
2018-10-18T09:59:17.062Z,33.90
2018-10-18T10:00:17.053Z,33.00
2018-10-18T10:01:17.142Z,36.00
2018-10-18T10:02:17.045Z,33.80
2018-10-18T10:03:17.069Z,31.40
2018-10-18T10:04:17.225Z,29.90
2018-10-18T10:05:17.077Z,29.90
2018-10-18T10:06:17.056Z,29.50
2018-10-18T10:07:17.138Z,28.10
2018-10-18T10:08:17.045Z,27.70
2018-10-18T10:09:17.044Z,26.30
2018-10-18T10:10:17.057Z,27.00
2018-10-18T10:11:17.093Z,25.10
2018-10-18T10:12:17.054Z,24.30
2018-10-18T10:13:17.146Z,23.60
2018-10-18T10:14:17.054Z,24.20
2018-10-18T10:15:17.046Z,24.00
2018-10-18T10:16:17.046Z,24.40
2018-10-18T10:17:17.166Z,23.50
2018-10-18T10:18:17.157Z,23.20
2018-10-18T10:19:17.125Z,22.30
2018-10-18T10:20:17.047Z,23.40
2018-10-18T10:21:17.046Z,25.50
2018-10-18T10:22:17.056Z,22.70
2018-10-18T10:23:17.041Z,22.90
2018-10-18T10:24:17.055Z,23.00
2018-10-18T10:25:17.080Z,23.60
2018-10-18T10:26:17.046Z,22.20
2018-10-18T10:27:17.042Z,23.20
2018-10-18T10:28:17.248Z,22.60
2018-10-18T10:29:17.044Z,22.20
2018-10-18T10:30:17.152Z,21.60
2018-10-18T10:31:17.311Z,21.80
2018-10-18T10:32:17.044Z,21.70
2018-10-18T10:33:17.063Z,21.30
2018-10-18T10:34:17.076Z,22.60
2018-10-18T10:35:17.118Z,23.30
2018-10-18T10:36:17.056Z,24.40
2018-10-18T10:37:17.047Z,24.20
2018-10-18T10:38:17.044Z,24.00
2018-10-18T10:39:17.084Z,22.20
2018-10-18T10:40:17.102Z,23.10
2018-10-18T10:41:17.141Z,23.90
2018-10-18T10:42:17.171Z,24.30
2018-10-18T10:43:17.085Z,22.80
2018-10-18T10:44:17.098Z,23.50
2018-10-18T10:45:17.177Z,23.70
2018-10-18T10:46:17.065Z,24.20
2018-10-18T10:47:17.075Z,24.40
2018-10-18T10:48:17.211Z,22.60
2018-10-18T10:49:17.086Z,23.10
2018-10-18T10:50:17.160Z,22.30
2018-10-18T10:51:17.172Z,22.50
2018-10-18T10:52:17.165Z,23.50
2018-10-18T10:53:17.065Z,22.90
2018-10-18T10:54:17.141Z,22.70
2018-10-18T10:55:17.045Z,23.00
2018-10-18T10:56:17.132Z,22.60
2018-10-18T10:57:17.188Z,21.90
2018-10-18T10:58:17.149Z,21.80
2018-10-18T10:59:17.060Z,21.70
2018-10-18T11:00:17.143Z,20.10
2018-10-18T11:01:17.066Z,20.40
2018-10-18T11:02:17.440Z,20.20
2018-10-18T11:03:17.156Z,18.60
2018-10-18T11:04:17.050Z,21.70
2018-10-18T11:05:17.051Z,18.60
2018-10-18T11:06:17.176Z,16.20
2018-10-18T11:07:17.046Z,15.70
2018-10-18T11:08:17.145Z,18.00
2018-10-18T11:09:17.092Z,15.80
2018-10-18T11:10:17.063Z,15.10
2018-10-18T11:11:17.046Z,14.10
2018-10-18T11:12:17.112Z,15.90
2018-10-18T11:13:17.064Z,16.10
2018-10-18T11:14:17.140Z,15.90
2018-10-18T11:15:17.133Z,16.60
2018-10-18T11:16:17.053Z,16.40
2018-10-18T11:17:17.230Z,16.00
2018-10-18T11:18:17.192Z,16.10
2018-10-18T11:19:17.060Z,14.20
2018-10-18T11:20:17.122Z,13.10
2018-10-18T11:21:17.157Z,10.80
2018-10-18T11:22:17.063Z,10.00
2018-10-18T11:23:17.054Z,10.40
2018-10-18T11:24:17.107Z,10.90
2018-10-18T11:25:17.066Z,10.00
2018-10-18T11:26:17.206Z,8.60
2018-10-18T11:27:17.162Z,8.40
2018-10-18T11:28:17.257Z,6.10
2018-10-18T11:29:17.052Z,6.60
2018-10-18T11:30:17.203Z,8.20
2018-10-18T11:31:17.055Z,7.50
2018-10-18T11:32:17.134Z,7.40
2018-10-18T11:33:17.297Z,8.70
2018-10-18T11:34:17.084Z,7.30
2018-10-18T11:35:17.075Z,6.70
2018-10-18T11:36:17.208Z,6.80
2018-10-18T11:37:17.068Z,6.00
2018-10-18T11:38:17.124Z,6.00
2018-10-18T11:39:17.070Z,6.10
2018-10-18T11:40:17.074Z,6.80
2018-10-18T11:41:17.070Z,6.60
2018-10-18T11:42:17.151Z,5.70
2018-10-18T11:43:17.059Z,6.00
2018-10-18T11:44:17.167Z,5.30
2018-10-18T11:45:17.061Z,4.60
2018-10-18T11:46:17.069Z,4.10
2018-10-18T11:47:17.075Z,8.00
2018-10-18T11:48:17.075Z,4.00
2018-10-18T11:49:17.072Z,5.20
2018-10-18T11:50:17.127Z,4.80
2018-10-18T11:51:17.065Z,4.20
2018-10-18T11:52:17.063Z,4.20
2018-10-18T11:53:17.267Z,4.20
2018-10-18T11:54:17.387Z,6.10
2018-10-18T11:55:17.078Z,4.50
2018-10-18T11:56:17.221Z,4.80
2018-10-18T11:57:17.077Z,5.00
2018-10-18T11:58:17.066Z,3.80
2018-10-18T11:59:17.155Z,4.40
2018-10-18T12:00:17.067Z,3.80
2018-10-18T12:01:17.321Z,4.70
2018-10-18T12:02:17.263Z,5.20
2018-10-18T12:03:17.081Z,4.50
2018-10-18T12:04:17.104Z,4.80
2018-10-18T12:05:17.157Z,4.90
2018-10-18T12:06:17.089Z,5.00
2018-10-18T12:07:17.275Z,4.90
2018-10-18T12:08:17.256Z,5.00
2018-10-18T12:09:17.086Z,4.60
2018-10-18T12:10:17.075Z,3.90
2018-10-18T12:11:17.175Z,4.20
2018-10-18T12:12:17.075Z,3.20
2018-10-18T12:13:17.087Z,3.60
2018-10-18T12:14:17.169Z,3.80
2018-10-18T12:15:17.280Z,3.30
2018-10-18T12:16:17.091Z,3.70
2018-10-18T12:17:17.120Z,3.50
2018-10-18T12:18:17.102Z,3.60
2018-10-18T12:19:17.119Z,4.60
2018-10-18T12:20:17.231Z,4.40
2018-10-18T12:21:17.095Z,4.40
2018-10-18T12:22:17.095Z,4.50
2018-10-18T12:23:17.231Z,5.50
2018-10-18T12:24:17.101Z,4.70
2018-10-18T12:25:17.086Z,5.70
2018-10-18T12:26:17.331Z,5.30
2018-10-18T12:27:17.092Z,4.90
2018-10-18T12:28:17.090Z,4.90
2018-10-18T12:29:17.122Z,4.30
2018-10-18T12:30:17.093Z,4.00
2018-10-18T12:31:17.306Z,4.10
2018-10-18T12:32:17.182Z,3.80
2018-10-18T12:33:17.110Z,4.30
2018-10-18T12:34:17.098Z,3.80
2018-10-18T12:35:17.163Z,3.60
2018-10-18T12:36:17.103Z,3.50
2018-10-18T12:37:17.115Z,4.10
2018-10-18T12:38:17.241Z,4.20
2018-10-18T12:39:17.144Z,3.70
2018-10-18T12:40:17.354Z,4.90
2018-10-18T12:41:17.264Z,5.00
2018-10-18T12:42:17.107Z,6.10
2018-10-18T12:43:17.119Z,5.70
2018-10-18T12:44:17.253Z,7.30
2018-10-18T12:45:17.119Z,4.60
2018-10-18T12:46:17.133Z,5.10
2018-10-18T12:47:17.123Z,4.20
2018-10-18T12:48:17.531Z,3.20
2018-10-18T12:49:17.126Z,3.20
2018-10-18T12:50:17.439Z,3.50